createdAt,value
2023-01-30T00:48:12.979Z,1.25
2023-01-30T00:50:58.721Z,1.10
2023-01-30T00:53:43.765Z,1.20
2023-01-30T00:56:29.017Z,1.10
2023-01-30T00:59:15.926Z,1.40
2023-01-30T01:47:45.858Z,1.35
2023-01-30T01:50:46.260Z,1.30
2023-01-30T01:53:38.746Z,0.95
2023-01-30T01:56:25.153Z,1.00
2023-01-30T01:59:34.351Z,1.13
2023-01-30T02:45:32.781Z,1.00
2023-01-30T02:48:25.647Z,1.03
2023-01-30T02:51:20.145Z,1.00
2023-01-30T02:54:07.935Z,1.20
2023-01-30T02:56:57.549Z,0.90
2023-01-30T02:59:47.153Z,1.10
2023-01-30T03:46:50.301Z,1.05
2023-01-30T03:49:36.984Z,1.03
2023-01-30T03:52:22.774Z,1.20
2023-01-30T03:55:08.626Z,1.10
2023-01-30T03:57:58.441Z,1.10
2023-01-30T04:46:44.325Z,1.10
2023-01-30T04:49:31.547Z,1.20
2023-01-30T04:52:18.180Z,1.00
2023-01-30T04:55:03.549Z,1.02
2023-01-30T04:57:50.713Z,0.95
2023-01-30T05:49:16.272Z,1.05
2023-01-30T05:52:01.236Z,1.00
2023-01-30T05:54:46.664Z,1.10
2023-01-30T05:57:31.749Z,1.10
2023-01-30T06:00:17.529Z,0.93
2023-01-30T06:03:03.520Z,0.98
2023-01-30T06:05:48.898Z,0.90
2023-01-30T06:08:34.290Z,1.20
2023-01-30T06:11:19.567Z,1.27
2023-01-30T06:14:04.851Z,1.17
2023-01-30T06:16:50.373Z,1.10
2023-01-30T06:19:35.670Z,1.10
2023-01-30T06:22:20.762Z,1.20
2023-01-30T06:25:06.194Z,1.00
2023-01-30T06:27:51.245Z,1.00
2023-01-30T06:30:36.517Z,1.10
2023-01-30T06:33:22.065Z,1.23
2023-01-30T06:36:07.624Z,1.08
2023-01-30T06:38:53.049Z,1.20
2023-01-30T06:41:38.620Z,1.00
2023-01-30T06:44:23.956Z,1.10
2023-01-30T06:47:09.235Z,1.07
2023-01-30T06:49:54.633Z,1.02
2023-01-30T06:52:42.144Z,0.88
2023-01-30T06:55:28.714Z,1.23
2023-01-30T06:58:15.018Z,1.13
2023-01-30T07:01:00.220Z,1.03
2023-01-30T07:03:45.648Z,4.45
2023-01-30T07:06:31.466Z,4.80
2023-01-30T07:09:16.915Z,4.55
2023-01-30T07:12:02.042Z,4.80
2023-01-30T07:14:47.485Z,4.20
2023-01-30T07:17:33.046Z,3.60
2023-01-30T07:20:17.973Z,3.67
2023-01-30T07:23:03.857Z,3.35
2023-01-30T07:25:48.897Z,2.90
2023-01-30T07:28:34.169Z,2.70
2023-01-30T07:31:19.425Z,2.60
2023-01-30T07:34:04.709Z,2.10
2023-01-30T07:36:49.820Z,2.00
2023-01-30T07:39:35.386Z,2.00
2023-01-30T07:42:20.582Z,2.37
2023-01-30T07:45:06.721Z,1.85
2023-01-30T07:47:52.264Z,1.63
2023-01-30T07:50:38.388Z,1.60
2023-01-30T07:53:24.393Z,1.50
2023-01-30T07:56:11.520Z,1.40
2023-01-30T07:58:57.428Z,1.40
2023-01-30T08:01:42.795Z,1.35
2023-01-30T08:04:27.905Z,1.60
2023-01-30T08:07:13.541Z,1.50
2023-01-30T08:09:58.844Z,1.13
2023-01-30T08:12:44.459Z,1.30
2023-01-30T08:15:31.819Z,1.20
2023-01-30T08:18:17.531Z,1.10
2023-01-30T08:21:05.704Z,1.25
2023-01-30T08:23:50.943Z,1.20
2023-01-30T08:26:36.740Z,1.30
2023-01-30T08:29:22.287Z,1.13
2023-01-30T08:32:07.681Z,1.30
2023-01-30T08:34:53.020Z,1.40
2023-01-30T08:37:42.017Z,1.47
2023-01-30T08:40:27.080Z,1.13
2023-01-30T08:43:12.928Z,1.10
2023-01-30T08:45:58.734Z,1.10
2023-01-30T08:48:49.971Z,1.20
2023-01-30T08:51:35.591Z,1.00
2023-01-30T08:54:20.917Z,1.10
2023-01-30T08:57:06.159Z,1.35
2023-01-30T08:59:52.143Z,1.10
2023-01-30T09:02:37.659Z,1.27
2023-01-30T09:05:23.333Z,1.27
2023-01-30T09:08:08.369Z,1.33
2023-01-30T09:10:58.423Z,1.23
2023-01-30T09:13:44.593Z,1.10
2023-01-30T09:16:29.616Z,1.20
2023-01-30T09:19:15.105Z,1.23
2023-01-30T09:22:00.804Z,1.10
2023-01-30T09:24:46.201Z,1.00
2023-01-30T09:27:31.750Z,1.30
2023-01-30T09:30:18.170Z,1.00
2023-01-30T09:33:03.825Z,1.10
2023-01-30T09:35:49.917Z,1.35
2023-01-30T09:38:35.329Z,1.20
2023-01-30T09:41:56.887Z,1.30
2023-01-30T09:45:03.465Z,0.93
2023-01-30T09:48:03.499Z,1.03
2023-01-30T09:51:18.030Z,0.90
2023-01-30T09:54:18.035Z,1.10
2023-01-30T09:57:21.578Z,1.33
2023-01-30T10:00:32.977Z,1.10
2023-01-30T10:03:22.233Z,1.00
2023-01-30T10:06:13.806Z,1.10
2023-01-30T10:09:23.608Z,1.10
2023-01-30T10:12:34.548Z,1.10
2023-01-30T10:15:38.488Z,1.17
2023-01-30T10:18:48.353Z,0.93
2023-01-30T10:21:56.102Z,1.40
2023-01-30T10:24:59.689Z,1.10
2023-01-30T10:27:54.025Z,1.25
2023-01-30T10:30:40.200Z,0.93
2023-01-30T10:33:32.767Z,1.30
2023-01-30T10:36:25.112Z,1.10
2023-01-30T10:39:54.295Z,1.10
2023-01-30T10:42:52.634Z,1.38
2023-01-30T10:45:53.142Z,1.10
2023-01-30T10:48:45.991Z,1.20
2023-01-30T10:51:51.025Z,1.00
2023-01-30T10:54:43.204Z,1.33
2023-01-30T10:57:58.600Z,1.10
2023-01-30T11:01:04.155Z,1.10
2023-01-30T11:04:31.591Z,1.07
2023-01-30T11:07:16.736Z,1.15
2023-01-30T11:10:01.908Z,1.40
2023-01-30T11:12:47.130Z,1.00
2023-01-30T11:15:44.522Z,1.00
2023-01-30T11:21:43.868Z,1.00
2023-01-30T11:24:31.064Z,1.15
2023-01-30T11:27:27.636Z,0.82
2023-01-30T11:30:17.607Z,1.15
2023-01-30T11:33:25.616Z,1.00
2023-01-30T11:36:32.556Z,1.08
2023-01-30T11:39:18.655Z,1.10
2023-01-30T11:42:04.849Z,0.80
2023-01-30T11:45:15.642Z,0.90
2023-01-30T11:48:07.869Z,0.90
2023-01-30T11:51:02.138Z,1.00
2023-01-30T11:53:50.985Z,1.00
2023-01-30T11:56:48.693Z,1.10
2023-01-30T11:59:39.503Z,0.98
2023-01-30T12:02:37.675Z,1.10
2023-01-30T12:05:25.887Z,1.08
2023-01-30T12:08:31.172Z,1.23
2023-01-30T12:11:30.558Z,3.38
2023-01-30T12:14:25.421Z,7.93
2023-01-30T12:17:44.646Z,12.50
2023-01-30T12:20:45.029Z,18.58
2023-01-30T12:23:42.775Z,21.05
2023-01-30T12:26:47.884Z,20.38
2023-01-30T12:29:39.820Z,20.80
2023-01-30T12:32:28.896Z,21.13
2023-01-30T12:35:17.600Z,23.63
2023-01-30T12:38:15.431Z,24.67
2023-01-30T12:41:40.503Z,23.83
2023-01-30T12:44:42.846Z,23.70
2023-01-30T12:47:59.441Z,26.00
2023-01-30T12:51:18.779Z,26.10
2023-01-30T12:54:17.140Z,24.90
2023-01-30T12:57:23.935Z,22.77
2023-01-30T13:00:12.466Z,22.65
2023-01-30T13:03:10.533Z,22.33
2023-01-30T13:06:22.070Z,24.45
2023-01-30T13:09:25.849Z,27.65
2023-01-30T13:12:49.337Z,33.58
2023-01-30T13:16:09.860Z,32.35
2023-01-30T13:19:05.198Z,33.93
2023-01-30T13:22:01.737Z,34.58
2023-01-30T13:25:24.607Z,34.08
2023-01-30T13:28:25.914Z,32.60
2023-01-30T13:31:16.664Z,30.40
2023-01-30T13:34:10.218Z,30.40
2023-01-30T13:37:04.152Z,30.05
2023-01-30T13:39:54.514Z,28.15
2023-01-30T13:42:50.025Z,31.40
2023-01-30T13:45:41.040Z,28.13
2023-01-30T13:48:50.487Z,28.10
2023-01-30T13:51:46.868Z,26.40
2023-01-30T13:54:38.376Z,28.95
2023-01-30T13:57:26.581Z,26.88
2023-01-30T14:00:33.503Z,27.08
2023-01-30T14:03:30.320Z,25.33
2023-01-30T14:06:36.447Z,27.90
2023-01-30T14:09:28.968Z,26.73
2023-01-30T14:12:24.761Z,28.50
2023-01-30T14:15:12.929Z,28.63
2023-01-30T14:18:07.073Z,28.53
2023-01-30T14:20:52.830Z,28.52
2023-01-30T14:23:38.350Z,27.92
2023-01-30T14:26:48.075Z,28.42
2023-01-30T14:29:42.875Z,27.58
2023-01-30T14:32:51.480Z,25.87
2023-01-30T14:35:36.682Z,26.65
2023-01-30T14:38:22.424Z,29.10
2023-01-30T14:41:07.543Z,21.45
2023-01-30T14:43:54.291Z,22.88
2023-01-30T14:46:43.229Z,22.60
2023-01-30T14:49:43.965Z,23.23
2023-01-30T14:52:39.152Z,23.45
2023-01-30T14:55:29.511Z,23.67
2023-01-30T14:58:18.519Z,22.55
2023-01-30T15:01:04.088Z,22.47
2023-01-30T15:03:50.536Z,23.70
2023-01-30T15:06:36.957Z,24.02
2023-01-30T15:09:26.269Z,22.13
2023-01-30T15:12:37.841Z,22.48
2023-01-30T15:15:38.222Z,19.93
2023-01-30T15:18:53.167Z,19.73
2023-01-30T15:22:08.779Z,19.77
2023-01-30T15:25:16.343Z,16.65
2023-01-30T15:28:36.621Z,19.08
2023-01-30T15:31:23.742Z,19.13
2023-01-30T15:34:21.581Z,18.27
2023-01-30T15:37:30.082Z,16.80
2023-01-30T15:40:15.746Z,16.80
2023-01-30T15:43:01.281Z,16.10
2023-01-30T15:46:05.344Z,17.03
2023-01-30T15:48:58.798Z,17.33
2023-01-30T15:51:45.452Z,15.48
2023-01-30T15:54:31.285Z,15.57
2023-01-30T15:57:24.064Z,15.85
2023-01-30T16:00:41.079Z,15.30
2023-01-30T16:03:36.770Z,16.95
2023-01-30T16:06:28.107Z,15.32
2023-01-30T16:09:21.757Z,16.35
2023-01-30T16:12:23.644Z,15.02
2023-01-30T16:15:41.443Z,14.03
2023-01-30T16:18:49.748Z,13.80
2023-01-30T16:21:37.968Z,13.15
2023-01-30T16:24:31.872Z,13.85
2023-01-30T16:27:29.330Z,12.10
2023-01-30T16:30:21.956Z,12.33
2023-01-30T16:33:09.158Z,6.68
2023-01-30T16:35:54.521Z,7.97
2023-01-30T16:38:44.516Z,7.72
2023-01-30T16:41:48.162Z,5.85
2023-01-30T16:44:33.966Z,4.50
2023-01-30T16:47:24.246Z,3.47
2023-01-30T16:50:22.256Z,3.70
2023-01-30T16:53:14.246Z,3.70
2023-01-30T16:56:14.746Z,3.67
2023-01-30T16:59:01.523Z,4.63
2023-01-30T17:01:47.476Z,4.78
2023-01-30T17:04:35.831Z,5.07
2023-01-30T17:07:34.523Z,5.30
2023-01-30T17:10:53.897Z,5.65
2023-01-30T17:13:43.947Z,5.20
2023-01-30T17:16:33.569Z,5.95
2023-01-30T17:19:19.439Z,5.55
2023-01-30T17:22:08.007Z,6.03
2023-01-30T17:24:58.505Z,5.35
2023-01-30T17:27:44.554Z,5.60
2023-01-30T17:30:30.661Z,5.38
2023-01-30T17:33:16.076Z,5.97
2023-01-30T17:36:05.599Z,5.32
2023-01-30T17:38:51.498Z,5.53
2023-01-30T17:41:37.171Z,5.40
2023-01-30T17:44:23.147Z,5.60
2023-01-30T17:47:11.661Z,5.28
2023-01-30T17:49:57.102Z,5.50
2023-01-30T17:52:42.630Z,5.07
2023-01-30T17:55:28.024Z,5.20
2023-01-30T17:58:17.325Z,4.90
2023-01-30T18:01:02.587Z,5.85
2023-01-30T18:03:47.694Z,5.15
2023-01-30T18:06:34.854Z,4.43
2023-01-30T18:09:22.649Z,5.20
2023-01-30T18:12:08.273Z,4.68
2023-01-30T18:14:53.699Z,4.53
2023-01-30T18:17:46.059Z,4.57
2023-01-30T18:20:32.722Z,5.63
2023-01-30T18:23:18.079Z,5.57
2023-01-30T18:26:04.572Z,6.50
2023-01-30T18:28:51.703Z,7.63
2023-01-30T18:31:39.563Z,9.80
2023-01-30T18:34:24.732Z,8.25
2023-01-30T18:37:09.983Z,8.20
2023-01-30T18:39:55.352Z,8.80
2023-01-30T18:42:41.228Z,10.13
2023-01-30T18:45:26.900Z,11.05
2023-01-30T18:48:12.266Z,10.60
2023-01-30T18:51:04.596Z,11.13
2023-01-30T18:53:52.199Z,10.23
2023-01-30T18:56:37.463Z,10.35
2023-01-30T18:59:23.322Z,9.50
2023-01-30T19:02:13.954Z,9.07
2023-01-30T19:04:59.468Z,7.80
2023-01-30T19:07:44.914Z,7.72
2023-01-30T19:10:32.747Z,7.28
2023-01-30T19:13:33.310Z,8.05
2023-01-30T19:16:19.618Z,7.50
2023-01-30T19:19:05.865Z,7.20
2023-01-30T19:21:52.182Z,7.32
2023-01-30T19:24:37.808Z,6.88
2023-01-30T19:27:23.546Z,6.40
2023-01-30T19:30:09.597Z,6.60
2023-01-30T19:32:58.643Z,5.90
2023-01-30T19:35:44.409Z,6.85
2023-01-30T19:38:29.878Z,6.40
2023-01-30T19:41:26.480Z,6.13
2023-01-30T19:44:11.951Z,6.03
2023-01-30T19:46:57.271Z,5.60
2023-01-30T19:49:42.411Z,6.88
2023-01-30T19:52:28.072Z,6.20
2023-01-30T19:55:12.962Z,6.47
2023-01-30T19:57:58.191Z,5.43
2023-01-30T20:00:44.331Z,6.07
2023-01-30T20:03:30.012Z,5.15
2023-01-30T20:06:27.952Z,6.20
2023-01-30T20:09:13.522Z,5.55
2023-01-30T20:11:59.143Z,5.65
2023-01-30T20:14:44.369Z,4.77
2023-01-30T20:17:32.287Z,5.60
2023-01-30T20:20:18.167Z,5.57
2023-01-30T20:23:03.399Z,5.50
2023-01-30T20:25:49.166Z,5.32
2023-01-30T20:28:35.161Z,4.63
2023-01-30T20:31:22.727Z,5.78
2023-01-30T20:34:12.171Z,5.40
2023-01-30T20:36:57.475Z,5.28
2023-01-30T20:39:42.755Z,4.57
2023-01-30T20:42:28.206Z,5.40
2023-01-30T20:45:13.323Z,5.78
2023-01-30T20:47:59.142Z,5.43
2023-01-30T20:50:44.750Z,4.97
2023-01-30T20:53:30.299Z,4.80
2023-01-30T21:44:45.411Z,3.23
2023-01-30T21:47:30.772Z,3.20
2023-01-30T21:50:16.397Z,3.63
2023-01-30T21:53:02.098Z,3.80
2023-01-30T21:55:51.362Z,3.60
2023-01-30T21:58:36.935Z,3.53
2023-01-30T22:01:22.687Z,3.58
2023-01-30T22:04:10.449Z,3.70
2023-01-30T22:06:56.103Z,3.25
2023-01-30T22:09:41.374Z,3.38
2023-01-30T22:12:27.184Z,3.10
2023-01-30T22:15:13.305Z,3.53
2023-01-30T22:17:58.645Z,3.33
2023-01-30T22:20:44.082Z,3.17
2023-01-30T22:23:35.285Z,3.40
2023-01-30T22:26:23.199Z,2.90
2023-01-30T22:29:09.114Z,3.22
2023-01-30T22:31:55.110Z,3.15
2023-01-30T22:34:40.602Z,3.05
2023-01-30T22:37:26.155Z,3.58
2023-01-30T22:40:11.567Z,2.90
2023-01-30T22:42:56.604Z,3.10
2023-01-30T22:45:41.809Z,2.55
2023-01-30T22:48:27.925Z,2.70
2023-01-30T22:51:18.932Z,2.90
2023-01-30T22:54:10.758Z,2.93
2023-01-30T22:56:56.265Z,3.47
2023-01-30T22:59:41.683Z,2.85
2023-01-30T23:02:26.965Z,2.75
2023-01-30T23:05:12.528Z,3.25
2023-01-30T23:07:57.774Z,2.50
2023-01-30T23:10:43.108Z,2.90
2023-01-30T23:13:28.233Z,3.10
2023-01-30T23:16:15.822Z,2.47
2023-01-30T23:19:04.334Z,2.78
2023-01-30T23:21:49.563Z,2.63
2023-01-30T23:24:35.672Z,3.08
2023-01-30T23:27:21.843Z,3.22
2023-01-30T23:30:07.746Z,2.83
2023-01-30T23:45:58.080Z,3.25
2023-01-30T23:48:45.486Z,2.90
2023-01-30T23:51:32.510Z,2.50
2023-01-30T23:54:18.307Z,2.85
2023-01-30T23:57:03.732Z,2.63
2023-01-30T23:59:49.290Z,3.08
